Latest Coastal Weather Observations for Tewantin

IDQ60701

Issued at 12:31 am EST Tuesday 26 January 2021 (issued every 10 minutes, with the page automatically refreshed every 10 minutes)

About coastal observations | Map of coastal stations | Coastal observations for QLD | Marine services | Other Formats
Station Details ID: 040908 Name: TEWANTIN RSL PARK Lat: -26.39 Lon: 153.04 Height: 6.4 m
Data from the previous 72 hours. | See also: Recent months at Tewantin
Date/Time
EST
Wind Sea
Height
m
Swell Vis
km
Cloud Weather Temp
°C
Press
MSL
hPa
Rain since
9am
mm
Dir  Spd
kts
Gust
kts
Height
m
Period
s
Dir
26/12:30am SW 4 5 - - - - - - - 20.8 1009.4 0.0
26/12:00am CALM 0 0 - - - - - - - 20.8 1009.6 0.0
 
Date/Time
EST
Wind Sea
Height
m
Swell Vis
km
Cloud Weather Temp
°C
Press
MSL
hPa
Rain since
9am
mm
Dir  Spd
kts
Gust
kts
Height
m
Period
s
Dir
25/11:30pm CALM 0 4 - - - - - - - 21.1 1009.9 0.0
25/11:00pm CALM 0 0 - - - - - - - 21.1 1009.9 0.0
25/10:30pm SSW 3 4 - - - - - - - 21.5 1010.1 0.0
25/10:00pm SSW 1 4 - - - - - - - 21.9 1010.2 0.0
25/09:30pm SW 3 5 - - - - - - - 22.3 1010.3 0.0
25/09:00pm CALM 0 0 - - - - - - - 23.0 1010.2 0.0
25/08:30pm E 1 4 - - - - - - - 23.6 1010.1 0.0
25/08:00pm E 3 5 - - - - - - - 23.8 1010.0 0.0
25/07:30pm E 4 6 - - - - - - - 24.2 1010.0 0.0
25/07:00pm E 5 7 - - - - - - - 24.6 1009.8 0.0
25/06:30pm ENE 4 6 - - - - - - - 25.0 1009.8 0.0
25/06:00pm ENE 7 9 - - - - - - - 25.4 1009.5 0.0
25/05:30pm ENE 5 8 - - - - - - - 25.7 1009.3 0.0
25/05:00pm E 7 10 - - - - - - - 26.2 1009.0 0.0
25/04:30pm NE 7 10 - - - - - - - 26.3 1009.1 0.0
25/04:00pm ENE 8 14 - - - - - - - 26.4 1009.2 0.0
25/03:30pm NE 7 11 - - - - - - - 26.9 1009.3 0.0
25/03:00pm E 7 11 - - - - - - - 26.4 1009.7 0.0
25/02:30pm ENE 8 12 - - - - - - - 27.2 1010.0 0.0
25/02:00pm ENE 7 11 - - - - - - - 28.2 1010.5 0.0
25/01:30pm ENE 6 10 - - - - - - - 26.8 1010.7 0.0
25/01:00pm NE 6 11 - - - - - - - 27.2 1011.0 0.0
25/12:30pm NE 6 9 - - - - - - - 27.8 1011.4 0.0
25/12:00pm ENE 6 9 - - - - - - - 26.8 1011.6 0.0
25/11:30am ENE 7 10 - - - - - - - 27.6 1011.9 0.0
25/11:00am NE 6 9 - - - - - - - 27.5 1012.1 0.0
25/10:30am NE 6 10 - - - - - - - 26.5 1012.3 0.0
25/10:00am E 4 9 - - - - - - - 25.9 1012.4 0.0
25/09:30am SSW 3 5 - - - - - - - 25.0 1012.6 0.0
25/09:00am S 4 6 - - - - - - - 24.9 1012.6 12.0
25/08:30am SW 2 4 - - - - - - - 24.1 1012.7 12.0
25/08:00am SW 3 5 - - - - - - - 23.5 1012.6 12.0
25/07:30am SSW 3 5 - - - - - - - 22.7 1012.4 12.0
25/07:00am SSW 4 7 - - - - - - - 22.4 1012.2 12.0
25/06:30am S 5 8 - - - - - - - 21.8 1012.4 12.0
25/06:00am SW 3 5 - - - - - - Recent precip. 21.5 1012.3 12.0
25/05:30am SSW 4 6 - - - - - - - 21.5 1012.2 11.8
25/05:00am SW 3 5 - - - - - - - 21.5 1012.0 11.8
25/04:30am CALM 0 0 - - - - - - - 21.5 1011.6 11.8
25/04:00am SSW 4 5 - - - - - - - 21.4 1011.3 11.8
25/03:30am SW 3 5 - - - - - - - 21.4 1011.2 11.8
25/03:00am SSW 4 7 - - - - - - Recent precip. 21.6 1011.3 11.8
25/02:30am S 4 5 - - - - - - - 21.8 1011.5 10.8
25/02:00am ESE 4 7 - - - - - - - 21.7 1011.3 9.6
25/01:30am SSW 3 5 - - - - - - - 21.8 1011.8 9.6
25/01:00am WSW 2 4 - - - - - - - 22.0 1012.2 9.6
25/12:30am S 3 7 - - - - - - - 22.2 1012.7 9.4
25/12:00am SW 2 4 - - - - - - - 22.3 1013.1 9.4
 
Date/Time
EST
Wind Sea
Height
m
Swell Vis
km
Cloud Weather Temp
°C
Press
MSL
hPa
Rain since
9am
mm
Dir  Spd
kts
Gust
kts
Height
m
Period
s
Dir
24/11:30pm SW 3 5 - - - - - - - 22.6 1013.3 9.4
24/11:00pm W 1 4 - - - - - - - 22.6 1013.4 9.4
24/10:30pm SW 3 4 - - - - - - - 22.7 1013.6 9.4
24/10:00pm CALM 0 0 - - - - - - - 23.0 1013.8 9.4
24/09:30pm E 3 5 - - - - - - - 22.9 1014.0 9.4
24/09:00pm ESE 5 8 - - - - - - - 22.8 1013.8 9.4
24/08:30pm ESE 3 6 - - - - - - - 22.3 1013.8 9.4
24/08:00pm SSE 3 8 - - - - - - - 21.9 1013.6 9.4
24/07:30pm CALM 0 0 - - - - - - - 21.5 1013.5 9.2
24/07:00pm NW 2 6 - - - - - - - 21.3 1013.5 9.2
24/06:30pm NNE 3 6 - - - - - - - 21.9 1013.3 3.4
24/06:00pm NE 5 8 - - - - - - Rain 22.2 1013.0 3.2
24/05:30pm E 4 6 - - - - - - - 21.9 1012.7 2.8
24/05:00pm S 5 8 - - - - - - - 23.5 1012.6 0.8
24/04:30pm SSE 5 7 - - - - - - - 23.2 1012.6 0.8
24/04:00pm SSE 3 5 - - - - - - - 22.6 1012.8 0.8
24/03:30pm ESE 6 9 - - - - - - - 22.2 1013.0 0.6
24/03:00pm ESE 10 14 - - - - - - Recent precip. 23.2 1012.9 0.4
24/02:30pm ESE 10 15 - - - - - - - 22.9 1012.9 0.4
24/02:00pm ESE 8 13 - - - - - - - 25.0 1013.0 0.0
24/01:30pm ESE 7 9 - - - - - - - 24.7 1013.1 0.0
24/01:00pm ESE 9 14 - - - - - - - 26.2 1013.3 0.0
24/12:30pm ESE 7 11 - - - - - - - 26.4 1013.6 0.0
24/12:00pm ESE 8 12 - - - - - - - 26.5 1014.0 0.0
24/11:30am ESE 6 9 - - - - - - - 27.2 1014.2 0.0
24/11:00am E 5 10 - - - - - - - 27.2 1014.6 0.0
24/10:30am ESE 7 12 - - - - - - - 27.0 1014.9 0.0
24/10:00am ESE 7 11 - - - - - - - 27.0 1015.1 0.0
24/09:30am ESE 7 13 - - - - - - - 26.7 1015.1 0.0
24/09:00am ESE 7 11 - - - - - - - 25.9 1015.0 0.0
24/08:30am ESE 8 12 - - - - - - - 25.5 1014.9 0.0
24/08:00am SSE 4 6 - - - - - - - 24.8 1014.9 0.0
24/07:30am SSW 4 6 - - - - - - - 24.0 1014.7 0.0
24/07:00am SSW 3 5 - - - - - - - 23.8 1014.6 0.0
24/06:30am SW 4 6 - - - - - - - 23.4 1014.3 0.0
24/06:00am SSW 1 4 - - - - - - - 22.2 1013.9 0.0
24/05:30am SSW 4 5 - - - - - - - 22.0 1013.4 0.0
24/05:00am SW 4 5 - - - - - - - 21.9 1013.3 0.0
24/04:30am SSW 2 5 - - - - - - - 21.8 1013.3 0.0
24/04:00am SSW 3 5 - - - - - - - 22.0 1013.1 0.0
24/03:30am SSW 3 5 - - - - - - - 22.2 1013.1 0.0
24/03:00am S 4 5 - - - - - - - 22.6 1013.2 0.0
24/02:30am ESE 4 6 - - - - - - - 23.5 1013.5 0.0
24/02:00am NE 3 6 - - - - - - - 23.2 1013.7 0.0
24/01:30am E 5 7 - - - - - - - 23.9 1014.0 0.0
24/01:00am E 5 7 - - - - - - - 24.0 1014.3 0.0
24/12:30am E 5 7 - - - - - - - 24.1 1014.5 0.0
24/12:00am E 3 8 - - - - - - - 24.1 1014.9 0.0
 
Date/Time
EST
Wind Sea
Height
m
Swell Vis
km
Cloud Weather Temp
°C
Press
MSL
hPa
Rain since
9am
mm
Dir  Spd
kts
Gust
kts
Height
m
Period
s
Dir
23/11:30pm SE 4 8 - - - - - - - 23.9 1015.1 0.0
23/11:00pm ESE 6 10 - - - - - - - 24.1 1015.3 0.0
23/10:30pm E 6 9 - - - - - - - 24.2 1015.6 0.0
23/10:00pm ESE 6 9 - - - - - - - 24.3 1015.6 0.0
23/09:30pm E 7 10 - - - - - - - 24.4 1015.5 0.0
23/09:00pm E 6 10 - - - - - - - 24.2 1015.5 0.0
23/08:30pm E 6 10 - - - - - - - 24.2 1015.4 0.0
23/08:00pm E 6 11 - - - - - - - 24.3 1015.2 0.0
23/07:30pm E 6 9 - - - - - - - 24.3 1015.0 0.0
23/07:00pm E 5 7 - - - - - - - 24.2 1014.9 0.0
23/06:30pm E 7 10 - - - - - - - 24.6 1014.8 0.0
23/06:00pm E 6 9 - - - - - - - 24.9 1014.4 0.0
23/05:30pm E 5 8 - - - - - - - 25.2 1014.1 0.0
23/05:00pm E 7 10 - - - - - - - 25.3 1013.8 0.0
23/04:30pm ESE 8 11 - - - - - - - 25.4 1013.6 0.0
23/04:00pm E 9 15 - - - - - - - 25.8 1013.5 0.0
23/03:30pm ESE 8 13 - - - - - - - 26.4 1013.4 0.0
23/03:00pm ESE 8 12 - - - - - - - 26.4 1013.5 0.0
23/02:30pm E 9 14 - - - - - - - 26.4 1013.5 0.0
23/02:00pm E 8 15 - - - - - - - 26.4 1013.7 0.0
23/01:30pm ESE 7 13 - - - - - - - 26.2 1013.9 0.0
23/01:00pm E 8 13 - - - - - - - 27.0 1014.1 0.0
23/12:30pm ESE 7 13 - - - - - - - 26.6 1014.2 0.0
23/12:00pm ESE 7 11 - - - - - - - 26.7 1014.3 0.0
23/11:30am E 7 11 - - - - - - - 26.7 1014.5 0.0
23/11:00am ESE 7 11 - - - - - - - 26.6 1014.7 0.0
23/10:30am E 7 10 - - - - - - - 27.2 1014.8 0.0
23/10:00am E 6 11 - - - - - - - 26.4 1014.9 0.0
23/09:30am ESE 2 6 - - - - - - - 25.9 1014.9 0.0
23/09:00am S 4 6 - - - - - - - 25.1 1014.9 0.0
23/08:30am S 5 7 - - - - - - - 24.6 1014.8 0.0
23/08:00am S 6 8 - - - - - - - 23.2 1014.8 0.0
23/07:30am S 4 5 - - - - - - - 22.4 1014.5 0.0
23/07:00am SSW 3 5 - - - - - - - 21.9 1014.4 0.0
23/06:30am SSW 2 4 - - - - - - - 20.4 1014.0 0.0
23/06:00am SW 2 5 - - - - - - - 19.8 1013.7 0.0
23/05:30am SSE 1 5 - - - - - - - 19.2 1013.6 0.0
23/05:00am CALM 0 0 - - - - - - - 19.3 1013.2 0.0
23/04:30am CALM 0 0 - - - - - - - 19.4 1012.9 0.0
23/04:00am CALM 0 3 - - - - - - - 19.6 1012.7 0.0
23/03:30am SW 2 4 - - - - - - - 19.6 1012.5 0.0
23/03:00am CALM 0 0 - - - - - - - 20.0 1012.5 0.0
23/02:30am CALM 0 0 - - - - - - - 20.2 1012.4 0.0
23/02:00am SSW 3 5 - - - - - - - 20.7 1012.6 0.0
23/01:30am SW 1 3 - - - - - - - 20.6 1012.8 0.0
23/01:00am SW 4 5 - - - - - - - 20.7 1013.3 0.0

Other formats

Comma delimited format used in spreadsheet applications
http://www.bom.gov.au/fwo/IDQ60701/IDQ60701.94570.axf

JavaScript Object Notation format (JSON) in row-major order
http://www.bom.gov.au/fwo/IDQ60701/IDQ60701.94570.json

Data quality

Most of these data are generated automatically and are frequently updated. Quality checks on data are not normally performed. It is possible for incorrect values to appear. Refer to information at About Latest Weather Observations and please check the disclaimer before using these data.